SBSV/SSA METAR and TAF weather

Enter ICAO airport designator
Station Type Date Time Source
SBSV METAR 2020/10/29 17:00 UTC NOAA

SBSV 291700Z 07016KT 9999 FEW020 SCT100 28/23 Q1011


Station Type Date Time Source
SBSV Decoded METAR 2020/10/29 17:00 UTC NOAA

Salvador Aeroporto , Brazil (SBSV) 12-54S 038-20W 13M
Oct 29, 2020 - 01:00 PM EDT / 2020.10.29 1700 UTC
Wind: from the ENE (070 degrees) at 18 MPH (16 KT):0
Visibility: greater than 7 mile(s):0
Sky conditions: partly cloudy
Temperature: 82 F (28 C)
Dew Point: 73 F (23 C)
Relative Humidity: 74%
Pressure (altimeter): 29.85 in. Hg (1011 hPa)
ob: SBSV 291700Z 07016KT 9999 FEW020 SCT100 28/23 Q1011
cycle: 17

Station Type Date Time Source
SBSV TAF 2020/10/29 18:27 UTC NOAA

TAF SBSV 291542Z 2918/3018 06020KT 9999 FEW022 TX30/2918Z TN24/3006Z
BECMG 2920/2922 06015KT
BECMG 2923/3001 05011KT FEW018
BECMG 3001/3003 04008KT
BECMG 3012/3014 06017KT SCT021
BECMG 3014/3016 07021KT
RMK PGM

Example: see airport list